Aérodrome :
LOGIN :

S'inscrire | Disclaimer

   EN    FR    IT 

 










Légende :    VFR   VFR Marginal   IFR   IFR Intensif   IFR Très Intensif
Visi : 
Plafond : 
>= 8 km
>= 3000ft
5 à 8 km
1000 à 3000 ft
1500m à 5 km
500 à 1000 ft
800 à 1500m
200 à 500 ft
< 800m
< 200 ft
Symboles :   Orages  Brouillard  Fortes neiges  Fortes précipitations  Vent > 20 kt
SIGMETs :   Divers  Orages  Givrage  Turbulence  Onde Orograph.  Cendres Volcan.







- Altitude de l'aérodrome : 156 ft
- Code IATA : MLN


GEML - Melilla

DERNIER METAR :
  • 142100Z AUTO VRB02KT 9999 NCD 27/13 Q1016

METARs EXPIRÉS :
  • 142030Z AUTO 00000KT 9999 NCD 27/12 Q1016
  • 142000Z AUTO VRB02KT 9999 NCD 27/11 Q1016
  • 141930Z AUTO VRB02KT 9999 NCD 28/13 Q1015
  • 141900Z AUTO 27004KT 200V330 9999 NCD 28/13 Q1015
  • 141830Z 27006KT 240V320 CAVOK 29/12 Q1015
  • 141800Z 26009KT 210V300 CAVOK 30/11 Q1015

TAF TAF GEML
Valide du 14 à 21h jusqu'au 15 à 21h UTC


142000Z 1421/1521 05004KT CAVOK TX29/1514Z TN21/1505Z
PROB40
TEMPO 1519/1521 BKN010
Pas de NOTAMs connus pour ce terrain.
1 SIGMET publié pour la FIR Casablanca (GMMM) :
 
Orages noyés dans la masse
GMMM SIGMET 02 VALID 141920/142320 GMMC
GMMM CASABLANCA FIR EMBD TS OBS S OF LINE N2907 W00902 - N3203 W0055 5 - N3258 W00334 - N3234 W00250 TOP FL430 MOV SE WKN=



MET'MAP, la Météo Aéronautique d'un coup d'oeil ! - Copyright ORBIFLY Décembre 2007 - Disclaimer

ORBIFLY MET'MAP TEAM :

Programmation & Développement : Alexandra Zaïnal
Conception & Développement : Baudouin d'Aumeries
Co-Programmation & Développement : Marc-Olivier Méhu
Soutien technique & logistique : Manuel Goepfert

Contact : metmap@orbifly.com




SOURCES & CREDITS :

   NOAA